sensor_id;sensor_type;location;lat;lon;timestamp;temperature;humidity
24158;DHT22;12316;50.904;4.200;2023-04-24T00:00:20;11.60;99.90
24158;DHT22;12316;50.904;4.200;2023-04-24T00:02:46;11.50;99.90
24158;DHT22;12316;50.904;4.200;2023-04-24T00:05:13;11.50;99.90
24158;DHT22;12316;50.904;4.200;2023-04-24T00:07:40;11.50;99.90
24158;DHT22;12316;50.904;4.200;2023-04-24T00:10:06;11.60;99.90
24158;DHT22;12316;50.904;4.200;2023-04-24T00:12:32;11.60;99.90
24158;DHT22;12316;50.904;4.200;2023-04-24T00:14:58;11.60;99.90
24158;DHT22;12316;50.904;4.200;2023-04-24T00:17:23;11.60;99.90
24158;DHT22;12316;50.904;4.200;2023-04-24T00:19:49;11.70;99.90
24158;DHT22;12316;50.904;4.200;2023-04-24T00:22:24;11.70;99.90
24158;DHT22;12316;50.904;4.200;2023-04-24T00:24:50;11.60;99.90
24158;DHT22;12316;50.904;4.200;2023-04-24T00:27:15;11.60;99.90
24158;DHT22;12316;50.904;4.200;2023-04-24T00:29:41;11.60;99.90
24158;DHT22;12316;50.904;4.200;2023-04-24T00:32:06;11.60;99.90
24158;DHT22;12316;50.904;4.200;2023-04-24T00:34:32;11.60;99.90
24158;DHT22;12316;50.904;4.200;2023-04-24T00:36:58;11.50;99.90
24158;DHT22;12316;50.904;4.200;2023-04-24T00:39:23;11.60;99.90
24158;DHT22;12316;50.904;4.200;2023-04-24T00:41:49;11.60;99.90
24158;DHT22;12316;50.904;4.200;2023-04-24T00:44:16;11.60;99.90
24158;DHT22;12316;50.904;4.200;2023-04-24T00:46:42;11.60;99.90
24158;DHT22;12316;50.904;4.200;2023-04-24T00:49:08;11.70;99.90
24158;DHT22;12316;50.904;4.200;2023-04-24T00:51:34;11.70;99.90
24158;DHT22;12316;50.904;4.200;2023-04-24T00:54:00;11.70;99.90
24158;DHT22;12316;50.904;4.200;2023-04-24T00:56:27;11.70;99.90
24158;DHT22;12316;50.904;4.200;2023-04-24T00:58:54;11.70;99.90
24158;DHT22;12316;50.904;4.200;2023-04-24T01:01:21;11.60;99.90
24158;DHT22;12316;50.904;4.200;2023-04-24T01:03:48;11.60;99.90
24158;DHT22;12316;50.904;4.200;2023-04-24T01:06:15;11.50;99.90
24158;DHT22;12316;50.904;4.200;2023-04-24T01:08:41;11.50;99.90
24158;DHT22;12316;50.904;4.200;2023-04-24T01:11:07;11.40;99.90
24158;DHT22;12316;50.904;4.200;2023-04-24T01:13:33;11.50;99.90
24158;DHT22;12316;50.904;4.200;2023-04-24T01:15:59;11.50;99.90
24158;DHT22;12316;50.904;4.200;2023-04-24T01:18:25;11.50;99.90
24158;DHT22;12316;50.904;4.200;2023-04-24T01:20:56;11.50;99.90
24158;DHT22;12316;50.904;4.200;2023-04-24T01:23:22;11.50;99.90
24158;DHT22;12316;50.904;4.200;2023-04-24T01:25:49;11.50;99.90
24158;DHT22;12316;50.904;4.200;2023-04-24T01:28:16;11.50;99.90
24158;DHT22;12316;50.904;4.200;2023-04-24T01:30:42;11.40;99.90
24158;DHT22;12316;50.904;4.200;2023-04-24T01:33:07;11.40;99.90
24158;DHT22;12316;50.904;4.200;2023-04-24T01:35:33;11.30;99.90
24158;DHT22;12316;50.904;4.200;2023-04-24T01:37:59;11.40;99.90
24158;DHT22;12316;50.904;4.200;2023-04-24T01:40:25;11.40;99.90
24158;DHT22;12316;50.904;4.200;2023-04-24T01:42:51;11.30;99.90
24158;DHT22;12316;50.904;4.200;2023-04-24T01:45:17;11.30;99.90
24158;DHT22;12316;50.904;4.200;2023-04-24T01:47:44;11.30;99.90
24158;DHT22;12316;50.904;4.200;2023-04-24T01:50:10;11.30;99.90
24158;DHT22;12316;50.904;4.200;2023-04-24T01:52:36;11.20;99.90
24158;DHT22;12316;50.904;4.200;2023-04-24T01:55:05;11.20;99.90
24158;DHT22;12316;50.904;4.200;2023-04-24T01:57:31;11.20;99.90
24158;DHT22;12316;50.904;4.200;2023-04-24T01:59:58;11.20;99.90
24158;DHT22;12316;50.904;4.200;2023-04-24T02:02:24;11.20;99.90
24158;DHT22;12316;50.904;4.200;2023-04-24T02:04:50;11.20;99.90
24158;DHT22;12316;50.904;4.200;2023-04-24T02:07:16;11.20;99.90
24158;DHT22;12316;50.904;4.200;2023-04-24T02:09:41;11.20;99.90
24158;DHT22;12316;50.904;4.200;2023-04-24T02:12:07;11.20;99.90
24158;DHT22;12316;50.904;4.200;2023-04-24T02:14:33;11.20;99.90
24158;DHT22;12316;50.904;4.200;2023-04-24T02:16:58;11.20;99.90
24158;DHT22;12316;50.904;4.200;2023-04-24T02:19:24;11.20;99.90
24158;DHT22;12316;50.904;4.200;2023-04-24T02:21:50;11.10;99.90
24158;DHT22;12316;50.904;4.200;2023-04-24T02:24:15;11.10;99.90
24158;DHT22;12316;50.904;4.200;2023-04-24T02:26:41;11.10;99.90
24158;DHT22;12316;50.904;4.200;2023-04-24T02:29:07;11.10;99.90
24158;DHT22;12316;50.904;4.200;2023-04-24T02:31:33;11.20;99.90
24158;DHT22;12316;50.904;4.200;2023-04-24T02:33:59;11.20;99.90
24158;DHT22;12316;50.904;4.200;2023-04-24T02:36:24;11.10;99.90
24158;DHT22;12316;50.904;4.200;2023-04-24T02:38:50;11.10;99.90
24158;DHT22;12316;50.904;4.200;2023-04-24T02:41:16;11.10;99.90
24158;DHT22;12316;50.904;4.200;2023-04-24T02:43:41;11.10;99.90
24158;DHT22;12316;50.904;4.200;2023-04-24T02:46:07;11.10;99.90
24158;DHT22;12316;50.904;4.200;2023-04-24T02:48:33;11.00;99.90
24158;DHT22;12316;50.904;4.200;2023-04-24T02:50:58;10.90;99.90
24158;DHT22;12316;50.904;4.200;2023-04-24T02:53:24;10.80;99.90
24158;DHT22;12316;50.904;4.200;2023-04-24T02:55:50;10.90;99.90
24158;DHT22;12316;50.904;4.200;2023-04-24T02:58:15;10.80;99.90
24158;DHT22;12316;50.904;4.200;2023-04-24T03:00:42;10.80;99.90
24158;DHT22;12316;50.904;4.200;2023-04-24T03:03:09;10.80;99.90
24158;DHT22;12316;50.904;4.200;2023-04-24T03:05:34;10.80;99.90
24158;DHT22;12316;50.904;4.200;2023-04-24T03:08:00;10.80;99.90
24158;DHT22;12316;50.904;4.200;2023-04-24T03:10:26;10.90;99.90
24158;DHT22;12316;50.904;4.200;2023-04-24T03:12:52;10.90;99.90
24158;DHT22;12316;50.904;4.200;2023-04-24T03:15:17;10.80;99.90
24158;DHT22;12316;50.904;4.200;2023-04-24T03:17:43;10.80;99.90
24158;DHT22;12316;50.904;4.200;2023-04-24T03:20:09;10.80;99.90
24158;DHT22;12316;50.904;4.200;2023-04-24T03:22:35;10.70;99.90
24158;DHT22;12316;50.904;4.200;2023-04-24T03:25:01;10.60;99.90
24158;DHT22;12316;50.904;4.200;2023-04-24T03:27:27;10.60;99.90
24158;DHT22;12316;50.904;4.200;2023-04-24T03:29:52;10.50;99.90
24158;DHT22;12316;50.904;4.200;2023-04-24T03:32:21;10.40;99.90
24158;DHT22;12316;50.904;4.200;2023-04-24T03:34:50;10.50;99.90
24158;DHT22;12316;50.904;4.200;2023-04-24T03:37:16;10.50;99.90
24158;DHT22;12316;50.904;4.200;2023-04-24T03:39:42;10.50;99.90
24158;DHT22;12316;50.904;4.200;2023-04-24T03:42:08;10.50;99.90
24158;DHT22;12316;50.904;4.200;2023-04-24T03:44:34;10.50;99.90
24158;DHT22;12316;50.904;4.200;2023-04-24T03:47:00;10.50;99.90
24158;DHT22;12316;50.904;4.200;2023-04-24T03:49:26;10.50;99.90
24158;DHT22;12316;50.904;4.200;2023-04-24T03:51:51;10.50;99.90
24158;DHT22;12316;50.904;4.200;2023-04-24T03:54:18;10.40;99.90
24158;DHT22;12316;50.904;4.200;2023-04-24T03:56:44;10.50;99.90
24158;DHT22;12316;50.904;4.200;2023-04-24T03:59:10;10.40;99.90
24158;DHT22;12316;50.904;4.200;2023-04-24T04:01:36;10.40;99.90
24158;DHT22;12316;50.904;4.200;2023-04-24T04:04:03;10.40;99.90
24158;DHT22;12316;50.904;4.200;2023-04-24T04:06:29;10.50;99.90
24158;DHT22;12316;50.904;4.200;2023-04-24T04:08:56;10.40;99.90
24158;DHT22;12316;50.904;4.200;2023-04-24T04:11:22;10.40;99.90
24158;DHT22;12316;50.904;4.200;2023-04-24T04:13:48;10.40;99.90
24158;DHT22;12316;50.904;4.200;2023-04-24T04:16:14;10.30;99.90
24158;DHT22;12316;50.904;4.200;2023-04-24T04:18:42;10.40;99.90
24158;DHT22;12316;50.904;4.200;2023-04-24T04:21:08;10.40;99.90
24158;DHT22;12316;50.904;4.200;2023-04-24T04:23:33;10.30;99.90
24158;DHT22;12316;50.904;4.200;2023-04-24T04:25:59;10.20;99.90
24158;DHT22;12316;50.904;4.200;2023-04-24T04:28:25;10.20;99.90
24158;DHT22;12316;50.904;4.200;2023-04-24T04:30:51;10.10;99.90
24158;DHT22;12316;50.904;4.200;2023-04-24T04:33:21;10.00;99.90
24158;DHT22;12316;50.904;4.200;2023-04-24T04:35:47;10.00;99.90
24158;DHT22;12316;50.904;4.200;2023-04-24T04:38:18;9.90;99.90
24158;DHT22;12316;50.904;4.200;2023-04-24T04:40:44;9.90;99.90
24158;DHT22;12316;50.904;4.200;2023-04-24T04:43:10;9.80;99.90
24158;DHT22;12316;50.904;4.200;2023-04-24T04:45:37;9.80;99.90
24158;DHT22;12316;50.904;4.200;2023-04-24T04:48:04;9.80;99.90
24158;DHT22;12316;50.904;4.200;2023-04-24T04:50:30;9.70;99.90
24158;DHT22;12316;50.904;4.200;2023-04-24T04:52:55;9.80;99.90
24158;DHT22;12316;50.904;4.200;2023-04-24T04:55:21;9.70;99.90
24158;DHT22;12316;50.904;4.200;2023-04-24T04:57:47;9.70;99.90
24158;DHT22;12316;50.904;4.200;2023-04-24T05:00:13;9.70;99.90
24158;DHT22;12316;50.904;4.200;2023-04-24T05:02:39;9.70;99.90
24158;DHT22;12316;50.904;4.200;2023-04-24T05:05:05;9.70;99.90
24158;DHT22;12316;50.904;4.200;2023-04-24T05:07:31;9.70;99.90
24158;DHT22;12316;50.904;4.200;2023-04-24T05:09:57;9.70;99.90
24158;DHT22;12316;50.904;4.200;2023-04-24T05:12:22;9.70;99.90
24158;DHT22;12316;50.904;4.200;2023-04-24T05:14:48;9.70;99.90
24158;DHT22;12316;50.904;4.200;2023-04-24T05:17:14;9.70;99.90
24158;DHT22;12316;50.904;4.200;2023-04-24T05:19:40;9.70;99.90
24158;DHT22;12316;50.904;4.200;2023-04-24T05:22:05;9.70;99.90
24158;DHT22;12316;50.904;4.200;2023-04-24T05:24:35;9.70;99.90
24158;DHT22;12316;50.904;4.200;2023-04-24T05:27:04;9.70;99.90
24158;DHT22;12316;50.904;4.200;2023-04-24T05:29:31;9.70;99.90
24158;DHT22;12316;50.904;4.200;2023-04-24T05:31:57;9.70;99.90
24158;DHT22;12316;50.904;4.200;2023-04-24T05:34:23;9.70;99.90
24158;DHT22;12316;50.904;4.200;2023-04-24T05:36:49;9.70;99.90
24158;DHT22;12316;50.904;4.200;2023-04-24T05:39:17;9.80;99.90
24158;DHT22;12316;50.904;4.200;2023-04-24T05:41:43;9.70;99.90
24158;DHT22;12316;50.904;4.200;2023-04-24T05:44:09;9.80;99.90
24158;DHT22;12316;50.904;4.200;2023-04-24T05:46:35;9.80;99.90
24158;DHT22;12316;50.904;4.200;2023-04-24T05:49:01;9.80;99.90
24158;DHT22;12316;50.904;4.200;2023-04-24T05:51:27;9.80;99.90
24158;DHT22;12316;50.904;4.200;2023-04-24T05:53:53;9.80;99.90
24158;DHT22;12316;50.904;4.200;2023-04-24T05:56:18;9.80;99.90
24158;DHT22;12316;50.904;4.200;2023-04-24T05:58:45;9.70;99.90
24158;DHT22;12316;50.904;4.200;2023-04-24T06:01:11;9.70;99.90
24158;DHT22;12316;50.904;4.200;2023-04-24T06:03:38;9.70;99.90
24158;DHT22;12316;50.904;4.200;2023-04-24T06:06:05;9.60;99.90
24158;DHT22;12316;50.904;4.200;2023-04-24T06:08:31;9.70;99.90
24158;DHT22;12316;50.904;4.200;2023-04-24T06:10:56;9.70;99.90
24158;DHT22;12316;50.904;4.200;2023-04-24T06:13:22;9.70;99.90
24158;DHT22;12316;50.904;4.200;2023-04-24T06:15:48;9.70;99.90
24158;DHT22;12316;50.904;4.200;2023-04-24T06:18:13;9.70;99.90
24158;DHT22;12316;50.904;4.200;2023-04-24T06:20:39;9.70;99.90
24158;DHT22;12316;50.904;4.200;2023-04-24T06:23:05;9.80;99.90
24158;DHT22;12316;50.904;4.200;2023-04-24T06:25:31;9.80;99.90
24158;DHT22;12316;50.904;4.200;2023-04-24T06:27:57;9.80;99.90
24158;DHT22;12316;50.904;4.200;2023-04-24T06:30:23;9.80;99.90
24158;DHT22;12316;50.904;4.200;2023-04-24T06:32:48;9.90;99.90
24158;DHT22;12316;50.904;4.200;2023-04-24T06:35:14;9.90;99.90
24158;DHT22;12316;50.904;4.200;2023-04-24T06:37:42;9.90;99.90
24158;DHT22;12316;50.904;4.200;2023-04-24T06:40:08;10.00;99.90
24158;DHT22;12316;50.904;4.200;2023-04-24T06:42:34;10.00;99.90
24158;DHT22;12316;50.904;4.200;2023-04-24T06:45:00;10.10;99.90
24158;DHT22;12316;50.904;4.200;2023-04-24T06:47:26;10.10;99.90
24158;DHT22;12316;50.904;4.200;2023-04-24T06:49:52;10.10;99.90
24158;DHT22;12316;50.904;4.200;2023-04-24T06:52:18;10.10;99.90
24158;DHT22;12316;50.904;4.200;2023-04-24T06:54:44;10.10;99.90
24158;DHT22;12316;50.904;4.200;2023-04-24T06:57:10;10.20;99.90
24158;DHT22;12316;50.904;4.200;2023-04-24T06:59:36;10.20;99.90
24158;DHT22;12316;50.904;4.200;2023-04-24T07:02:02;10.20;99.90
24158;DHT22;12316;50.904;4.200;2023-04-24T07:04:28;10.20;99.90
24158;DHT22;12316;50.904;4.200;2023-04-24T07:06:54;10.20;99.90
24158;DHT22;12316;50.904;4.200;2023-04-24T07:09:25;10.40;99.90
24158;DHT22;12316;50.904;4.200;2023-04-24T07:11:51;10.60;99.90
24158;DHT22;12316;50.904;4.200;2023-04-24T07:14:17;10.70;99.90
24158;DHT22;12316;50.904;4.200;2023-04-24T07:16:43;10.80;99.90
24158;DHT22;12316;50.904;4.200;2023-04-24T07:19:10;10.90;99.90
24158;DHT22;12316;50.904;4.200;2023-04-24T07:21:36;10.80;99.90
24158;DHT22;12316;50.904;4.200;2023-04-24T07:24:02;10.90;99.90
24158;DHT22;12316;50.904;4.200;2023-04-24T07:26:29;11.00;99.90
24158;DHT22;12316;50.904;4.200;2023-04-24T07:28:55;11.10;99.90
24158;DHT22;12316;50.904;4.200;2023-04-24T07:31:20;11.00;99.90
24158;DHT22;12316;50.904;4.200;2023-04-24T07:33:47;10.90;99.90
24158;DHT22;12316;50.904;4.200;2023-04-24T07:36:13;10.70;99.90
24158;DHT22;12316;50.904;4.200;2023-04-24T07:38:42;10.50;99.90
24158;DHT22;12316;50.904;4.200;2023-04-24T07:41:08;10.40;99.90
24158;DHT22;12316;50.904;4.200;2023-04-24T07:43:34;10.50;99.90
24158;DHT22;12316;50.904;4.200;2023-04-24T07:46:00;10.70;99.90
24158;DHT22;12316;50.904;4.200;2023-04-24T07:48:25;10.80;99.90
24158;DHT22;12316;50.904;4.200;2023-04-24T07:50:52;10.80;99.90
24158;DHT22;12316;50.904;4.200;2023-04-24T07:53:17;10.90;99.90
24158;DHT22;12316;50.904;4.200;2023-04-24T07:55:43;11.00;99.90
24158;DHT22;12316;50.904;4.200;2023-04-24T07:58:09;11.10;99.90
24158;DHT22;12316;50.904;4.200;2023-04-24T08:00:35;11.00;99.90
24158;DHT22;12316;50.904;4.200;2023-04-24T08:03:01;11.00;99.90
24158;DHT22;12316;50.904;4.200;2023-04-24T08:05:26;11.00;99.90
24158;DHT22;12316;50.904;4.200;2023-04-24T08:07:54;11.00;99.90
24158;DHT22;12316;50.904;4.200;2023-04-24T08:10:21;11.00;99.90
24158;DHT22;12316;50.904;4.200;2023-04-24T08:12:47;11.30;99.90
24158;DHT22;12316;50.904;4.200;2023-04-24T08:15:12;11.40;99.90
24158;DHT22;12316;50.904;4.200;2023-04-24T08:17:38;11.40;99.90
24158;DHT22;12316;50.904;4.200;2023-04-24T08:20:04;11.50;99.90
24158;DHT22;12316;50.904;4.200;2023-04-24T08:22:30;11.50;99.90
24158;DHT22;12316;50.904;4.200;2023-04-24T08:24:57;11.50;99.90
24158;DHT22;12316;50.904;4.200;2023-04-24T08:27:23;11.60;99.90
24158;DHT22;12316;50.904;4.200;2023-04-24T08:29:49;11.70;99.90
24158;DHT22;12316;50.904;4.200;2023-04-24T08:32:15;11.60;99.90
24158;DHT22;12316;50.904;4.200;2023-04-24T08:34:41;11.70;99.90
24158;DHT22;12316;50.904;4.200;2023-04-24T08:37:06;11.90;99.90
24158;DHT22;12316;50.904;4.200;2023-04-24T08:39:32;11.90;99.90
24158;DHT22;12316;50.904;4.200;2023-04-24T08:41:59;11.80;99.90
24158;DHT22;12316;50.904;4.200;2023-04-24T08:44:32;11.80;99.90
24158;DHT22;12316;50.904;4.200;2023-04-24T08:46:58;11.90;99.90
24158;DHT22;12316;50.904;4.200;2023-04-24T08:49:24;12.00;99.90
24158;DHT22;12316;50.904;4.200;2023-04-24T08:51:50;12.10;99.90
24158;DHT22;12316;50.904;4.200;2023-04-24T08:54:18;12.10;99.90
24158;DHT22;12316;50.904;4.200;2023-04-24T08:56:44;12.40;99.90
24158;DHT22;12316;50.904;4.200;2023-04-24T08:59:10;12.50;99.90
24158;DHT22;12316;50.904;4.200;2023-04-24T09:01:37;12.40;99.90
24158;DHT22;12316;50.904;4.200;2023-04-24T09:04:03;12.40;99.90
24158;DHT22;12316;50.904;4.200;2023-04-24T09:06:30;12.40;99.90
24158;DHT22;12316;50.904;4.200;2023-04-24T09:09:00;12.50;99.90
24158;DHT22;12316;50.904;4.200;2023-04-24T09:11:26;12.60;99.90
24158;DHT22;12316;50.904;4.200;2023-04-24T09:13:54;12.50;99.90
24158;DHT22;12316;50.904;4.200;2023-04-24T09:16:20;12.60;99.90
24158;DHT22;12316;50.904;4.200;2023-04-24T09:18:48;12.60;99.90
24158;DHT22;12316;50.904;4.200;2023-04-24T09:21:14;12.40;99.90
24158;DHT22;12316;50.904;4.200;2023-04-24T09:23:40;12.20;99.90
24158;DHT22;12316;50.904;4.200;2023-04-24T09:26:09;12.20;99.90
24158;DHT22;12316;50.904;4.200;2023-04-24T09:28:37;12.30;99.90
24158;DHT22;12316;50.904;4.200;2023-04-24T09:31:13;12.50;99.90
24158;DHT22;12316;50.904;4.200;2023-04-24T09:34:03;12.90;99.90
24158;DHT22;12316;50.904;4.200;2023-04-24T09:39:05;13.00;99.90
24158;DHT22;12316;50.904;4.200;2023-04-24T09:41:32;13.00;99.90
24158;DHT22;12316;50.904;4.200;2023-04-24T09:44:12;13.30;99.90
24158;DHT22;12316;50.904;4.200;2023-04-24T09:46:37;13.40;99.90
24158;DHT22;12316;50.904;4.200;2023-04-24T09:49:14;13.40;99.90
24158;DHT22;12316;50.904;4.200;2023-04-24T09:51:41;13.30;99.90
24158;DHT22;12316;50.904;4.200;2023-04-24T09:54:17;13.10;99.90
24158;DHT22;12316;50.904;4.200;2023-04-24T09:56:45;13.20;99.90
24158;DHT22;12316;50.904;4.200;2023-04-24T09:59:11;13.10;99.90
24158;DHT22;12316;50.904;4.200;2023-04-24T10:01:37;13.00;99.90
24158;DHT22;12316;50.904;4.200;2023-04-24T10:04:04;12.90;99.90
24158;DHT22;12316;50.904;4.200;2023-04-24T10:06:36;13.00;99.90
24158;DHT22;12316;50.904;4.200;2023-04-24T10:09:02;13.10;99.90
24158;DHT22;12316;50.904;4.200;2023-04-24T10:11:30;12.90;99.90
24158;DHT22;12316;50.904;4.200;2023-04-24T10:13:56;12.90;99.90
24158;DHT22;12316;50.904;4.200;2023-04-24T10:16:23;12.90;99.90
24158;DHT22;12316;50.904;4.200;2023-04-24T10:18:49;12.90;99.90
24158;DHT22;12316;50.904;4.200;2023-04-24T10:21:17;13.20;99.90
24158;DHT22;12316;50.904;4.200;2023-04-24T10:23:43;13.40;99.90
24158;DHT22;12316;50.904;4.200;2023-04-24T10:26:15;13.40;99.90
24158;DHT22;12316;50.904;4.200;2023-04-24T10:28:46;13.40;99.90
24158;DHT22;12316;50.904;4.200;2023-04-24T10:31:13;13.20;99.90
24158;DHT22;12316;50.904;4.200;2023-04-24T10:33:40;13.10;99.90
24158;DHT22;12316;50.904;4.200;2023-04-24T10:36:11;13.30;99.90
24158;DHT22;12316;50.904;4.200;2023-04-24T10:38:40;13.40;99.90
24158;DHT22;12316;50.904;4.200;2023-04-24T10:41:11;13.80;99.90
24158;DHT22;12316;50.904;4.200;2023-04-24T10:43:42;14.00;99.90
24158;DHT22;12316;50.904;4.200;2023-04-24T10:46:08;14.10;99.90
24158;DHT22;12316;50.904;4.200;2023-04-24T10:48:36;14.00;99.90
24158;DHT22;12316;50.904;4.200;2023-04-24T10:51:12;14.20;99.90
24158;DHT22;12316;50.904;4.200;2023-04-24T10:53:38;14.10;99.90
24158;DHT22;12316;50.904;4.200;2023-04-24T10:56:08;14.10;99.90
24158;DHT22;12316;50.904;4.200;2023-04-24T10:58:50;14.10;99.90
24158;DHT22;12316;50.904;4.200;2023-04-24T11:01:25;14.10;99.90
24158;DHT22;12316;50.904;4.200;2023-04-24T11:03:55;14.20;99.90
24158;DHT22;12316;50.904;4.200;2023-04-24T11:06:35;14.20;99.90
24158;DHT22;12316;50.904;4.200;2023-04-24T11:09:08;14.30;99.90
24158;DHT22;12316;50.904;4.200;2023-04-24T11:11:38;14.40;99.90
24158;DHT22;12316;50.904;4.200;2023-04-24T11:14:07;14.30;99.90
24158;DHT22;12316;50.904;4.200;2023-04-24T11:27:13;13.90;99.90
24158;DHT22;12316;50.904;4.200;2023-04-24T11:34:58;14.00;99.90
24158;DHT22;12316;50.904;4.200;2023-04-24T11:37:27;14.10;99.90
24158;DHT22;12316;50.904;4.200;2023-04-24T11:39:57;14.30;99.90
24158;DHT22;12316;50.904;4.200;2023-04-24T11:42:23;14.20;99.90
24158;DHT22;12316;50.904;4.200;2023-04-24T11:44:51;14.10;99.90
24158;DHT22;12316;50.904;4.200;2023-04-24T11:47:17;13.80;99.90
24158;DHT22;12316;50.904;4.200;2023-04-24T11:49:43;13.60;99.90
24158;DHT22;12316;50.904;4.200;2023-04-24T11:52:08;13.50;99.90
24158;DHT22;12316;50.904;4.200;2023-04-24T11:54:34;13.70;99.90
24158;DHT22;12316;50.904;4.200;2023-04-24T11:57:04;13.60;99.90
24158;DHT22;12316;50.904;4.200;2023-04-24T11:59:30;13.70;99.90
24158;DHT22;12316;50.904;4.200;2023-04-24T12:02:00;13.80;99.90
24158;DHT22;12316;50.904;4.200;2023-04-24T12:04:25;13.80;99.90
24158;DHT22;12316;50.904;4.200;2023-04-24T12:07:03;13.70;99.90
24158;DHT22;12316;50.904;4.200;2023-04-24T12:09:44;13.60;99.90
24158;DHT22;12316;50.904;4.200;2023-04-24T12:12:15;13.80;99.90
24158;DHT22;12316;50.904;4.200;2023-04-24T12:17:10;13.70;99.90
24158;DHT22;12316;50.904;4.200;2023-04-24T12:19:36;13.90;99.90
24158;DHT22;12316;50.904;4.200;2023-04-24T12:22:04;14.00;99.90
24158;DHT22;12316;50.904;4.200;2023-04-24T12:24:30;14.00;99.90
24158;DHT22;12316;50.904;4.200;2023-04-24T12:26:57;14.10;99.90
24158;DHT22;12316;50.904;4.200;2023-04-24T12:29:24;14.00;99.90
24158;DHT22;12316;50.904;4.200;2023-04-24T12:31:50;14.30;99.90
24158;DHT22;12316;50.904;4.200;2023-04-24T12:34:24;14.30;99.90
24158;DHT22;12316;50.904;4.200;2023-04-24T12:36:50;14.20;99.90
24158;DHT22;12316;50.904;4.200;2023-04-24T12:39:20;14.20;99.90
24158;DHT22;12316;50.904;4.200;2023-04-24T12:41:58;13.90;99.90
24158;DHT22;12316;50.904;4.200;2023-04-24T12:44:34;13.80;99.90
24158;DHT22;12316;50.904;4.200;2023-04-24T12:47:01;13.80;99.90
24158;DHT22;12316;50.904;4.200;2023-04-24T12:49:29;13.90;99.90
24158;DHT22;12316;50.904;4.200;2023-04-24T12:51:55;13.80;99.90
24158;DHT22;12316;50.904;4.200;2023-04-24T12:54:22;13.60;99.90
24158;DHT22;12316;50.904;4.200;2023-04-24T12:56:47;13.70;99.90
24158;DHT22;12316;50.904;4.200;2023-04-24T12:59:13;13.80;99.90
24158;DHT22;12316;50.904;4.200;2023-04-24T13:01:38;13.80;99.90
24158;DHT22;12316;50.904;4.200;2023-04-24T13:04:05;14.10;99.90
24158;DHT22;12316;50.904;4.200;2023-04-24T13:06:31;14.10;99.90
24158;DHT22;12316;50.904;4.200;2023-04-24T13:08:57;14.00;99.90
24158;DHT22;12316;50.904;4.200;2023-04-24T13:11:23;13.70;99.90
24158;DHT22;12316;50.904;4.200;2023-04-24T13:13:50;13.70;99.90
24158;DHT22;12316;50.904;4.200;2023-04-24T13:16:15;13.70;99.90
24158;DHT22;12316;50.904;4.200;2023-04-24T13:18:41;13.70;99.90
24158;DHT22;12316;50.904;4.200;2023-04-24T13:21:07;13.50;99.90
24158;DHT22;12316;50.904;4.200;2023-04-24T13:23:32;13.50;99.90
24158;DHT22;12316;50.904;4.200;2023-04-24T13:25:58;13.70;99.90
24158;DHT22;12316;50.904;4.200;2023-04-24T13:28:24;14.00;99.90
24158;DHT22;12316;50.904;4.200;2023-04-24T13:30:51;14.20;99.90
24158;DHT22;12316;50.904;4.200;2023-04-24T13:33:16;14.40;99.90
24158;DHT22;12316;50.904;4.200;2023-04-24T13:35:42;14.60;99.90
24158;DHT22;12316;50.904;4.200;2023-04-24T13:38:08;14.60;99.90
24158;DHT22;12316;50.904;4.200;2023-04-24T13:40:33;14.40;99.90
24158;DHT22;12316;50.904;4.200;2023-04-24T13:42:59;14.30;99.90
24158;DHT22;12316;50.904;4.200;2023-04-24T13:45:27;14.10;99.90
24158;DHT22;12316;50.904;4.200;2023-04-24T13:47:53;14.20;99.90
24158;DHT22;12316;50.904;4.200;2023-04-24T13:50:19;14.40;99.90
24158;DHT22;12316;50.904;4.200;2023-04-24T13:52:45;14.40;99.90
24158;DHT22;12316;50.904;4.200;2023-04-24T13:55:11;14.50;99.90
24158;DHT22;12316;50.904;4.200;2023-04-24T13:57:37;14.40;99.90
24158;DHT22;12316;50.904;4.200;2023-04-24T14:00:03;14.40;99.90
24158;DHT22;12316;50.904;4.200;2023-04-24T14:02:29;14.50;99.90
24158;DHT22;12316;50.904;4.200;2023-04-24T14:04:55;14.40;99.90
24158;DHT22;12316;50.904;4.200;2023-04-24T14:07:21;14.10;99.90
24158;DHT22;12316;50.904;4.200;2023-04-24T14:09:47;14.20;99.90
24158;DHT22;12316;50.904;4.200;2023-04-24T14:12:13;14.00;99.90
24158;DHT22;12316;50.904;4.200;2023-04-24T14:14:39;14.00;99.90
24158;DHT22;12316;50.904;4.200;2023-04-24T14:17:05;13.90;99.90
24158;DHT22;12316;50.904;4.200;2023-04-24T14:19:31;14.00;99.90
24158;DHT22;12316;50.904;4.200;2023-04-24T14:21:57;14.10;99.90
24158;DHT22;12316;50.904;4.200;2023-04-24T14:24:23;14.20;99.90
24158;DHT22;12316;50.904;4.200;2023-04-24T14:26:49;14.10;99.90
24158;DHT22;12316;50.904;4.200;2023-04-24T14:29:15;14.10;99.90
24158;DHT22;12316;50.904;4.200;2023-04-24T14:31:42;14.30;99.90
24158;DHT22;12316;50.904;4.200;2023-04-24T14:34:08;14.50;99.90
24158;DHT22;12316;50.904;4.200;2023-04-24T14:36:34;14.60;99.90
24158;DHT22;12316;50.904;4.200;2023-04-24T14:39:00;14.60;99.90
24158;DHT22;12316;50.904;4.200;2023-04-24T14:41:30;14.90;99.90
24158;DHT22;12316;50.904;4.200;2023-04-24T14:43:56;15.10;99.90
24158;DHT22;12316;50.904;4.200;2023-04-24T14:46:22;15.20;99.90
24158;DHT22;12316;50.904;4.200;2023-04-24T14:48:48;14.70;99.80
24158;DHT22;12316;50.904;4.200;2023-04-24T14:51:13;14.80;99.90
24158;DHT22;12316;50.904;4.200;2023-04-24T14:53:39;15.00;99.90
24158;DHT22;12316;50.904;4.200;2023-04-24T14:56:05;15.00;99.80
24158;DHT22;12316;50.904;4.200;2023-04-24T14:58:30;15.10;99.90
24158;DHT22;12316;50.904;4.200;2023-04-24T15:00:56;15.10;99.90
24158;DHT22;12316;50.904;4.200;2023-04-24T15:03:22;14.70;99.90
24158;DHT22;12316;50.904;4.200;2023-04-24T15:05:48;14.60;99.90
24158;DHT22;12316;50.904;4.200;2023-04-24T15:08:14;14.50;99.90
24158;DHT22;12316;50.904;4.200;2023-04-24T15:10:40;14.40;99.90
24158;DHT22;12316;50.904;4.200;2023-04-24T15:13:05;14.20;99.90
24158;DHT22;12316;50.904;4.200;2023-04-24T15:15:31;14.20;99.90
24158;DHT22;12316;50.904;4.200;2023-04-24T15:17:57;14.20;99.90
24158;DHT22;12316;50.904;4.200;2023-04-24T15:20:22;14.30;99.90
24158;DHT22;12316;50.904;4.200;2023-04-24T15:22:48;14.10;99.90
24158;DHT22;12316;50.904;4.200;2023-04-24T15:25:13;14.00;99.90
24158;DHT22;12316;50.904;4.200;2023-04-24T15:27:40;14.00;99.90
24158;DHT22;12316;50.904;4.200;2023-04-24T15:30:07;14.00;99.90
24158;DHT22;12316;50.904;4.200;2023-04-24T15:32:33;14.00;99.90
24158;DHT22;12316;50.904;4.200;2023-04-24T15:34:58;14.00;99.90
24158;DHT22;12316;50.904;4.200;2023-04-24T15:37:24;14.00;99.90
24158;DHT22;12316;50.904;4.200;2023-04-24T15:39:50;14.10;99.90
24158;DHT22;12316;50.904;4.200;2023-04-24T15:42:16;14.30;99.90
24158;DHT22;12316;50.904;4.200;2023-04-24T15:44:41;14.20;99.90
24158;DHT22;12316;50.904;4.200;2023-04-24T15:47:07;14.00;99.90
24158;DHT22;12316;50.904;4.200;2023-04-24T15:49:32;13.90;99.90